createdAt,value
2018-05-03T00:01:47.090Z,56.25
2018-05-03T00:04:12.816Z,56.88
2018-05-03T00:06:38.534Z,56.75
2018-05-03T00:09:04.126Z,56.76
2018-05-03T00:11:29.712Z,57.39
2018-05-03T00:13:55.477Z,57.49
2018-05-03T00:16:21.090Z,57.38
2018-05-03T00:18:46.859Z,57.22
2018-05-03T00:21:12.629Z,57.14
2018-05-03T00:23:38.230Z,57.86
2018-05-03T00:26:03.771Z,58.71
2018-05-03T00:28:30.568Z,58.90
2018-05-03T00:30:56.112Z,58.25
2018-05-03T00:33:21.668Z,58.80
2018-05-03T00:35:47.470Z,59.09
2018-05-03T00:38:13.259Z,59.68
2018-05-03T00:40:38.798Z,60.07
2018-05-03T00:43:04.649Z,60.20
2018-05-03T00:45:30.206Z,59.96
2018-05-03T00:47:56.086Z,59.96
2018-05-03T00:50:21.863Z,60.15
2018-05-03T00:52:47.436Z,60.75
2018-05-03T00:55:12.988Z,60.80
2018-05-03T00:57:38.761Z,60.54
2018-05-03T01:00:04.329Z,59.23
2018-05-03T01:02:30.135Z,60.06
2018-05-03T01:04:55.809Z,59.40
2018-05-03T01:07:21.340Z,60.58
2018-05-03T01:09:46.894Z,60.81
2018-05-03T01:12:13.010Z,61.09
2018-05-03T01:14:38.582Z,59.95
2018-05-03T01:17:04.123Z,58.67
2018-05-03T01:19:29.849Z,58.57
2018-05-03T01:21:55.433Z,59.21
2018-05-03T01:24:21.195Z,58.85
2018-05-03T01:26:47.197Z,58.57
2018-05-03T01:29:12.755Z,58.66
2018-05-03T01:31:38.312Z,58.89
2018-05-03T01:34:04.123Z,59.06
2018-05-03T01:36:32.862Z,59.10
2018-05-03T01:38:58.427Z,59.27
2018-05-03T01:41:24.234Z,58.67
2018-05-03T01:43:49.840Z,57.89
2018-05-03T01:46:15.436Z,58.29
2018-05-03T01:48:41.333Z,58.14
2018-05-03T01:51:06.929Z,57.91
2018-05-03T01:53:32.544Z,58.65
2018-05-03T01:55:58.605Z,58.86
2018-05-03T01:58:24.224Z,58.85
2018-05-03T02:00:49.850Z,59.12
2018-05-03T02:03:16.635Z,58.57
2018-05-03T02:05:42.212Z,59.08
2018-05-03T02:08:07.777Z,60.07
2018-05-03T02:10:33.849Z,60.31
2018-05-03T02:12:59.500Z,59.57
2018-05-03T02:15:25.098Z,59.33
2018-05-03T02:17:50.860Z,58.95
2018-05-03T02:20:16.455Z,58.46
2018-05-03T02:22:42.359Z,56.64
2018-05-03T02:25:08.156Z,56.56
2018-05-03T02:27:33.729Z,56.53
2018-05-03T02:29:59.300Z,57.49
2018-05-03T02:32:25.103Z,57.77
2018-05-03T02:34:50.722Z,58.85
2018-05-03T02:37:16.527Z,59.23
2018-05-03T02:39:42.388Z,59.97
2018-05-03T02:42:07.967Z,60.53
2018-05-03T02:44:33.514Z,60.80
2018-05-03T02:46:59.379Z,61.10
2018-05-03T02:49:24.953Z,60.91
2018-05-03T02:51:50.523Z,60.74
2018-05-03T02:54:16.339Z,60.99
2018-05-03T02:56:41.932Z,60.61
2018-05-03T02:59:45.590Z,60.61
2018-05-03T03:02:30.419Z,60.66
2018-05-03T03:05:52.415Z,60.65
2018-05-03T03:08:39.727Z,61.15
2018-05-03T03:11:49.199Z,61.52
2018-05-03T03:14:34.189Z,61.49
2018-05-03T03:17:56.614Z,61.72
2018-05-03T03:20:37.613Z,61.48
2018-05-03T03:23:59.866Z,61.93
2018-05-03T03:26:53.417Z,61.38
2018-05-03T03:29:56.626Z,61.92
2018-05-03T03:33:01.369Z,60.82
2018-05-03T03:35:26.942Z,60.57
2018-05-03T03:38:33.821Z,62.51
2018-05-03T03:41:36.894Z,62.72
2018-05-03T03:44:40.547Z,63.04
2018-05-03T03:47:06.114Z,64.10
2018-05-03T03:49:31.685Z,64.56
2018-05-03T03:51:57.912Z,66.02
2018-05-03T03:54:24.244Z,66.25
2018-05-03T03:56:49.876Z,65.54
2018-05-03T03:59:15.924Z,66.04
2018-05-03T04:01:41.510Z,66.25
2018-05-03T04:04:07.221Z,66.04
2018-05-03T04:06:32.846Z,65.62
2018-05-03T04:08:58.606Z,65.86
2018-05-03T04:11:24.344Z,65.72
2018-05-03T04:13:49.955Z,66.05
2018-05-03T04:16:15.599Z,65.98
2018-05-03T04:19:19.866Z,65.24
2018-05-03T04:22:23.151Z,65.63
2018-05-03T04:25:26.590Z,65.71
2018-05-03T04:27:52.157Z,66.27
2018-05-03T04:30:17.809Z,66.34
2018-05-03T04:32:44.211Z,66.15
2018-05-03T04:35:10.648Z,65.94
2018-05-03T04:37:36.217Z,65.78
2018-05-03T04:40:02.281Z,65.48
2018-05-03T04:42:27.923Z,65.36
2018-05-03T04:44:54.030Z,65.30
2018-05-03T04:47:19.601Z,65.05
2018-05-03T04:49:45.680Z,64.98
2018-05-03T04:52:11.244Z,64.18
2018-05-03T04:54:37.113Z,64.26
2018-05-03T04:57:02.988Z,65.01
2018-05-03T04:59:28.549Z,64.39
2018-05-03T05:01:54.283Z,64.96
2018-05-03T05:04:20.079Z,63.75
2018-05-03T05:06:45.650Z,64.15
2018-05-03T05:09:12.009Z,64.37
2018-05-03T05:11:37.743Z,63.44
2018-05-03T05:14:03.894Z,63.98
2018-05-03T05:16:29.497Z,64.17
2018-05-03T05:18:55.350Z,64.32
2018-05-03T05:21:21.402Z,64.74
2018-05-03T05:23:46.989Z,64.89
2018-05-03T05:26:12.654Z,64.33
2018-05-03T05:28:38.818Z,63.47
2018-05-03T05:31:04.469Z,63.81
2018-05-03T05:33:31.111Z,63.98
2018-05-03T05:35:58.568Z,64.08
2018-05-03T05:38:24.612Z,64.28
2018-05-03T05:40:50.140Z,64.07
2018-05-03T05:43:15.783Z,64.04
2018-05-03T05:45:41.980Z,63.93
2018-05-03T05:48:08.298Z,63.64
2018-05-03T05:50:34.416Z,63.71
2018-05-03T05:53:00.720Z,63.72
2018-05-03T05:55:27.285Z,63.82
2018-05-03T05:57:52.897Z,64.19
2018-05-03T06:00:18.799Z,64.17
2018-05-03T06:02:44.475Z,64.54
2018-05-03T06:05:10.498Z,64.10
2018-05-03T06:07:36.054Z,64.25
2018-05-03T06:10:01.858Z,63.95
2018-05-03T06:12:27.587Z,64.12
2018-05-03T06:14:53.376Z,64.39
2018-05-03T06:17:18.989Z,64.00
2018-05-03T06:19:44.547Z,64.13
2018-05-03T06:22:10.395Z,63.38
2018-05-03T06:24:35.957Z,62.60
2018-05-03T06:27:01.522Z,63.33
2018-05-03T06:29:27.316Z,63.60
2018-05-03T06:31:52.937Z,64.06
2018-05-03T06:34:18.506Z,63.37
2018-05-03T06:36:44.474Z,64.00
2018-05-03T06:39:10.100Z,64.24
2018-05-03T06:41:36.754Z,64.27
2018-05-03T06:44:02.512Z,64.10
2018-05-03T06:46:28.086Z,64.31
2018-05-03T06:48:53.725Z,64.25
2018-05-03T06:51:19.555Z,64.35
2018-05-03T06:53:45.116Z,63.74
2018-05-03T06:56:10.839Z,64.03
2018-05-03T06:58:36.594Z,63.97
2018-05-03T07:01:02.171Z,63.85
2018-05-03T07:03:27.792Z,64.28
2018-05-03T07:05:53.539Z,63.90
2018-05-03T07:08:19.145Z,63.99
2018-05-03T07:10:44.718Z,64.51
2018-05-03T07:13:10.526Z,63.66
2018-05-03T07:15:36.237Z,64.07
2018-05-03T07:18:01.800Z,64.06
2018-05-03T07:20:27.515Z,63.79
2018-05-03T07:22:53.099Z,63.61
2018-05-03T07:25:18.756Z,63.12
2018-05-03T07:27:44.549Z,62.77
2018-05-03T07:30:10.126Z,61.29
2018-05-03T07:32:35.690Z,59.56
2018-05-03T07:35:01.407Z,56.93
2018-05-03T07:37:26.973Z,53.38
2018-05-03T07:39:52.549Z,53.46
2018-05-03T07:42:18.346Z,52.66
2018-05-03T07:44:43.974Z,51.87
2018-05-03T07:47:09.756Z,51.17
2018-05-03T07:49:35.440Z,51.08
2018-05-03T07:52:01.089Z,51.66
2018-05-03T07:54:26.677Z,51.08
2018-05-03T07:56:52.494Z,51.01
2018-05-03T07:59:18.090Z,51.33
2018-05-03T08:01:43.735Z,51.01
2018-05-03T08:04:09.930Z,52.04
2018-05-03T08:06:35.497Z,52.19
2018-05-03T08:09:01.069Z,52.56
2018-05-03T08:11:26.829Z,52.18
2018-05-03T08:13:52.401Z,52.07
2018-05-03T08:16:18.025Z,51.89
2018-05-03T08:18:43.811Z,51.90
2018-05-03T08:21:09.400Z,51.99
2018-05-03T08:23:34.993Z,51.84
2018-05-03T08:26:00.757Z,50.80
2018-05-03T08:28:26.530Z,51.45
2018-05-03T08:30:52.129Z,50.87
2018-05-03T08:33:17.857Z,49.90
2018-05-03T08:35:43.427Z,50.60
2018-05-03T08:38:08.995Z,49.65
2018-05-03T08:40:34.817Z,49.53
2018-05-03T08:43:00.399Z,47.47
2018-05-03T08:45:26.000Z,47.50
2018-05-03T08:47:51.743Z,46.83
2018-05-03T08:50:17.478Z,47.25
2018-05-03T08:52:43.064Z,46.84
2018-05-03T08:55:08.817Z,47.70
2018-05-03T08:57:34.381Z,47.28
2018-05-03T09:00:00.193Z,46.93
2018-05-03T09:02:26.007Z,46.70
2018-05-03T09:04:51.684Z,46.91
2018-05-03T09:07:17.307Z,46.35
2018-05-03T09:09:43.038Z,46.54
2018-05-03T09:12:08.709Z,47.18
2018-05-03T09:14:34.267Z,47.87
2018-05-03T09:16:59.997Z,47.74
2018-05-03T09:19:25.618Z,47.35
2018-05-03T09:21:51.274Z,46.58
2018-05-03T09:24:17.061Z,46.86
2018-05-03T09:26:42.620Z,46.21
2018-05-03T09:29:08.189Z,46.63
2018-05-03T09:31:33.927Z,47.13
2018-05-03T09:33:59.496Z,47.08
2018-05-03T09:36:25.117Z,46.50
2018-05-03T09:38:50.875Z,46.64
2018-05-03T09:41:16.467Z,46.11
2018-05-03T09:43:42.049Z,46.56
2018-05-03T09:46:08.210Z,47.52
2018-05-03T09:48:33.842Z,46.93
2018-05-03T09:50:59.424Z,47.62
2018-05-03T09:53:25.133Z,47.10
2018-05-03T09:55:50.836Z,46.73
2018-05-03T09:58:16.397Z,46.42
2018-05-03T10:00:41.966Z,46.19
2018-05-03T10:03:07.688Z,45.18
2018-05-03T10:05:33.267Z,43.90
2018-05-03T10:07:59.036Z,43.37
2018-05-03T10:10:25.035Z,43.51
2018-05-03T10:12:50.594Z,44.19
2018-05-03T10:15:16.154Z,44.04
2018-05-03T10:17:41.941Z,43.86
2018-05-03T10:20:07.589Z,43.57
2018-05-03T10:22:33.289Z,44.14
2018-05-03T10:24:59.265Z,43.57
2018-05-03T10:27:24.976Z,44.35
2018-05-03T10:29:50.559Z,45.10
2018-05-03T10:32:16.317Z,45.44
2018-05-03T10:34:41.952Z,44.90
2018-05-03T10:37:07.578Z,44.61
2018-05-03T10:39:34.456Z,44.53
2018-05-03T10:42:00.090Z,44.70
2018-05-03T10:44:25.703Z,43.55
2018-05-03T10:46:51.535Z,43.56
2018-05-03T10:49:17.090Z,43.45
2018-05-03T10:51:42.680Z,42.53
2018-05-03T10:54:08.395Z,42.47
2018-05-03T10:56:33.999Z,43.23
2018-05-03T10:58:59.731Z,42.48
2018-05-03T11:01:25.446Z,42.94
2018-05-03T11:03:51.192Z,42.52
2018-05-03T11:06:16.891Z,41.48
2018-05-03T11:08:42.709Z,42.07
2018-05-03T11:11:08.377Z,41.36
2018-05-03T11:13:33.933Z,42.01
2018-05-03T11:15:59.739Z,42.48
2018-05-03T11:18:25.598Z,42.04
2018-05-03T11:20:51.288Z,41.45
2018-05-03T11:23:17.002Z,41.93
2018-05-03T11:25:42.657Z,41.46
2018-05-03T11:28:08.215Z,41.76
2018-05-03T11:30:33.947Z,41.41
2018-05-03T11:32:59.505Z,41.78
2018-05-03T11:35:25.127Z,41.92
2018-05-03T11:37:50.981Z,41.27
2018-05-03T11:40:17.065Z,41.21
2018-05-03T11:42:42.785Z,41.15
2018-05-03T11:45:08.474Z,40.84
2018-05-03T11:47:34.073Z,40.77
2018-05-03T11:49:59.687Z,40.22
2018-05-03T11:52:25.390Z,40.81
2018-05-03T11:54:50.968Z,39.61
2018-05-03T11:57:16.724Z,39.22
2018-05-03T11:59:42.753Z,39.60
2018-05-03T12:02:08.509Z,39.75
2018-05-03T12:04:34.153Z,39.52
2018-05-03T12:06:59.963Z,39.80
2018-05-03T12:09:25.564Z,40.18
2018-05-03T12:11:51.280Z,39.46
2018-05-03T12:14:17.020Z,39.91
2018-05-03T12:16:42.658Z,39.52
2018-05-03T12:19:08.223Z,39.90
2018-05-03T12:21:34.309Z,39.25
2018-05-03T12:23:59.875Z,38.96
2018-05-03T12:26:25.621Z,38.85
2018-05-03T12:28:51.318Z,38.75
2018-05-03T12:31:19.043Z,38.28
